Terminal Aerodrome Forecast
Issued by NWS

Current Version | Previous Version | Text Only | Print | Product List | Glossary Off
Versions: 1 2 3 4 5 6 7 8 9 10 11 12 13 14 15 16 17 18 19

000
FTUS41 KRNK 240343 AAA
TAFLWB
TAF AMD
KLWB 240343Z 2404/2424 00000KT P6SM SCT100
     FM240600 00000KT 4SM BR SCT080
     FM240800 00000KT 1/2SM FG BKN001
     FM241400 26003KT P6SM SCT025
     FM241800 27006KT P6SM SCT050=

USA.gov is the U.S. government's official web portal to all federal, state and local government web resources and services.